createdAt,value
2023-05-11T00:02:25.851Z,11.40
2023-05-11T00:07:29.303Z,11.40
2023-05-11T00:12:34.795Z,11.30
2023-05-11T00:17:38.165Z,11.20
2023-05-11T00:22:44.048Z,11.20
2023-05-11T00:27:49.589Z,11.20
2023-05-11T00:32:53.725Z,11.10
2023-05-11T00:37:57.097Z,11.00
2023-05-11T00:43:01.783Z,10.80
2023-05-11T00:48:06.177Z,10.80
2023-05-11T00:53:11.487Z,10.80
2023-05-11T00:58:16.812Z,10.70
2023-05-11T01:03:20.109Z,10.60
2023-05-11T01:08:32.248Z,10.40
2023-05-11T01:13:42.833Z,10.30
2023-05-11T01:18:52.698Z,10.20
2023-05-11T01:24:37.368Z,10.30
2023-05-11T01:30:03.607Z,10.20
2023-05-11T01:35:13.811Z,10.10
2023-05-11T01:40:21.612Z,10.00
2023-05-11T01:45:26.900Z,10.00
2023-05-11T01:50:32.212Z,10.00
2023-05-11T01:55:36.345Z,10.00
2023-05-11T02:00:40.724Z,10.10
2023-05-11T02:05:47.446Z,10.00
2023-05-11T02:10:53.315Z,9.90
2023-05-11T02:15:57.756Z,9.90
2023-05-11T02:21:04.690Z,9.90
2023-05-11T02:26:10.648Z,9.60
2023-05-11T02:31:19.541Z,9.60
2023-05-11T02:36:25.966Z,9.60
2023-05-11T02:41:33.287Z,9.60
2023-05-11T02:46:38.773Z,9.50
2023-05-11T02:51:45.858Z,9.50
2023-05-11T02:56:51.295Z,9.50
2023-05-11T03:01:55.444Z,9.50
2023-05-11T03:07:00.866Z,9.40
2023-05-11T03:12:04.568Z,9.50
2023-05-11T03:17:11.421Z,9.50
2023-05-11T03:22:16.608Z,9.50
2023-05-11T03:27:21.949Z,9.40
2023-05-11T03:32:25.669Z,9.40
2023-05-11T03:37:31.779Z,9.40
2023-05-11T03:42:37.653Z,9.50
2023-05-11T03:47:42.948Z,9.70
2023-05-11T03:52:49.149Z,9.80
2023-05-11T03:57:52.934Z,10.00
2023-05-11T04:02:56.512Z,10.10
2023-05-11T04:08:02.553Z,10.30
2023-05-11T04:13:06.191Z,10.60
2023-05-11T04:18:09.853Z,10.70
2023-05-11T04:23:16.983Z,10.80
2023-05-11T04:28:20.580Z,10.90
2023-05-11T04:33:24.851Z,11.00
2023-05-11T04:38:31.018Z,11.10
2023-05-11T04:43:34.366Z,11.20
2023-05-11T04:48:38.135Z,11.30
2023-05-11T04:53:42.864Z,11.60
2023-05-11T04:58:47.017Z,11.90
2023-05-11T05:03:50.819Z,12.30
2023-05-11T05:08:56.092Z,13.20
2023-05-11T05:13:59.482Z,15.60
2023-05-11T05:19:03.094Z,17.30
2023-05-11T05:24:11.409Z,18.40
2023-05-11T05:29:15.063Z,19.40
2023-05-11T05:34:19.296Z,20.80
2023-05-11T05:39:24.968Z,21.60
2023-05-11T05:44:28.635Z,22.40
2023-05-11T05:49:32.525Z,22.70
2023-05-11T05:54:37.795Z,23.00
2023-05-11T05:59:41.319Z,23.00
2023-05-11T06:04:45.935Z,23.40
2023-05-11T06:09:50.780Z,23.50
2023-05-11T06:14:54.164Z,23.50
2023-05-11T06:19:57.580Z,23.30
2023-05-11T06:25:06.750Z,22.90
2023-05-11T06:30:11.373Z,23.80
2023-05-11T06:35:17.162Z,24.90
2023-05-11T06:40:23.827Z,25.70
2023-05-11T06:45:27.255Z,25.20
2023-05-11T06:50:31.466Z,26.60
2023-05-11T06:55:36.204Z,27.40
2023-05-11T07:00:39.722Z,25.40
2023-05-11T07:05:43.072Z,26.20
2023-05-11T07:10:47.911Z,25.90
2023-05-11T07:15:51.722Z,26.80
2023-05-11T07:20:55.033Z,26.60
2023-05-11T07:25:59.699Z,25.40
2023-05-11T07:31:04.637Z,27.20
2023-05-11T07:36:08.564Z,27.20
2023-05-11T07:41:13.316Z,28.90
2023-05-11T07:46:17.048Z,28.80
2023-05-11T07:51:20.829Z,27.60
2023-05-11T07:56:26.630Z,26.80
2023-05-11T08:01:29.988Z,26.60
2023-05-11T08:06:33.313Z,27.10
2023-05-11T08:11:38.096Z,26.20
2023-05-11T08:16:41.714Z,27.20
2023-05-11T08:21:46.887Z,26.20
2023-05-11T08:26:52.040Z,26.00
2023-05-11T08:31:55.574Z,26.40
2023-05-11T08:37:02.028Z,27.80
2023-05-11T08:42:07.806Z,27.70
2023-05-11T08:47:22.496Z,26.10
2023-05-11T08:52:28.032Z,25.20
2023-05-11T08:57:34.749Z,25.60
2023-05-11T09:02:38.907Z,26.60
2023-05-11T09:07:44.380Z,26.40
2023-05-11T09:12:49.534Z,27.10
2023-05-11T09:17:53.045Z,27.10
2023-05-11T09:22:56.534Z,26.20
2023-05-11T09:28:01.325Z,27.00
2023-05-11T09:33:04.903Z,26.90
2023-05-11T09:38:10.040Z,27.70
2023-05-11T09:43:20.085Z,27.80
2023-05-11T09:48:29.610Z,27.80
2023-05-11T09:53:38.718Z,28.20
2023-05-11T09:58:48.489Z,27.60
2023-05-11T10:04:05.823Z,28.50
2023-05-11T10:09:22.570Z,30.00
2023-05-11T10:14:29.337Z,28.70
2023-05-11T10:19:33.472Z,27.90
2023-05-11T10:24:37.456Z,28.20
2023-05-11T10:29:43.589Z,26.80
2023-05-11T10:34:48.277Z,25.20
2023-05-11T10:39:52.262Z,24.80
2023-05-11T10:45:08.004Z,26.70
2023-05-11T10:50:42.991Z,28.70
2023-05-11T10:56:13.441Z,29.40
2023-05-11T11:01:31.037Z,31.10
2023-05-11T11:06:37.073Z,28.90
2023-05-11T11:11:42.667Z,28.10
2023-05-11T11:17:19.943Z,29.30
2023-05-11T11:22:47.600Z,29.10
2023-05-11T11:27:58.600Z,29.80
2023-05-11T11:33:33.750Z,29.50
2023-05-11T11:44:22.188Z,28.10
2023-05-11T11:49:27.580Z,26.90
2023-05-11T11:54:41.261Z,26.10
2023-05-11T11:59:47.918Z,24.80
2023-05-11T12:04:56.842Z,24.30
2023-05-11T12:10:03.952Z,24.00
2023-05-11T12:15:22.046Z,23.50
2023-05-11T12:20:26.046Z,23.20
2023-05-11T12:25:29.419Z,23.00
2023-05-11T12:30:34.649Z,22.90
2023-05-11T12:35:40.420Z,22.90
2023-05-11T12:40:47.937Z,23.00
2023-05-11T12:45:52.907Z,22.90
2023-05-11T12:50:58.405Z,23.00
2023-05-11T12:56:02.164Z,23.60
2023-05-11T13:01:09.638Z,23.40
2023-05-11T13:06:13.880Z,23.90
2023-05-11T13:11:17.812Z,23.50
2023-05-11T13:16:27.460Z,23.60
2023-05-11T13:21:33.441Z,23.10
2023-05-11T13:26:37.254Z,24.00
2023-05-11T13:31:46.475Z,24.80
2023-05-11T13:36:50.338Z,25.00
2023-05-11T13:41:55.917Z,24.60
2023-05-11T13:47:01.660Z,24.10
2023-05-11T13:52:05.784Z,23.80
2023-05-11T13:57:09.368Z,25.30
2023-05-11T14:02:14.632Z,25.10
2023-05-11T14:07:18.110Z,24.30
2023-05-11T14:12:22.192Z,24.90
2023-05-11T14:17:27.022Z,25.70
2023-05-11T14:22:30.987Z,26.10
2023-05-11T14:27:34.370Z,26.20
2023-05-11T14:32:39.145Z,27.10
2023-05-11T14:37:42.510Z,27.70
2023-05-11T14:42:45.841Z,26.90
2023-05-11T14:47:51.040Z,25.90
2023-05-11T14:52:54.855Z,25.70
2023-05-11T14:57:58.249Z,26.30
2023-05-11T15:03:03.147Z,24.70
2023-05-11T15:08:15.336Z,23.70
2023-05-11T15:13:25.605Z,23.20
2023-05-11T15:18:30.504Z,22.50
2023-05-11T15:23:33.926Z,22.70
2023-05-11T15:28:37.317Z,23.00
2023-05-11T15:33:42.044Z,24.10
2023-05-11T15:38:45.447Z,24.10
2023-05-11T15:43:48.842Z,23.70
2023-05-11T15:48:53.457Z,23.40
2023-05-11T15:53:56.841Z,23.50
2023-05-11T15:59:00.330Z,22.90
2023-05-11T16:04:05.506Z,22.60
2023-05-11T16:09:10.128Z,22.30
2023-05-11T16:14:13.601Z,21.90
2023-05-11T16:19:18.394Z,21.80
2023-05-11T16:24:21.788Z,21.70
2023-05-11T16:29:26.735Z,21.70
2023-05-11T16:34:31.866Z,21.60
2023-05-11T16:39:35.748Z,21.60
2023-05-11T16:44:39.495Z,21.50
2023-05-11T16:49:44.426Z,21.20
2023-05-11T16:54:48.149Z,21.00
2023-05-11T16:59:51.986Z,21.00
2023-05-11T17:04:56.831Z,20.90
2023-05-11T17:10:00.484Z,20.90
2023-05-11T17:15:09.588Z,20.90
2023-05-11T17:20:15.818Z,20.80
2023-05-11T17:25:19.435Z,20.80
2023-05-11T17:30:30.054Z,20.60
2023-05-11T17:35:40.915Z,20.50
2023-05-11T17:40:45.003Z,20.50
2023-05-11T17:45:48.370Z,20.70
2023-05-11T17:50:53.580Z,20.60
2023-05-11T17:55:58.582Z,20.60
2023-05-11T18:01:06.321Z,20.50
2023-05-11T18:06:11.605Z,20.50
2023-05-11T18:11:15.019Z,20.40
2023-05-11T18:16:18.451Z,20.30
2023-05-11T18:21:23.477Z,20.10
2023-05-11T18:26:27.038Z,19.90
2023-05-11T18:31:31.049Z,20.00
2023-05-11T18:36:35.818Z,19.80
2023-05-11T18:41:39.247Z,19.70
2023-05-11T18:46:42.792Z,19.50
2023-05-11T18:51:47.603Z,19.50
2023-05-11T18:56:51.345Z,19.50
2023-05-11T19:01:54.721Z,19.50
2023-05-11T19:06:59.616Z,19.30
2023-05-11T19:12:03.857Z,19.10
2023-05-11T19:17:07.231Z,19.10
2023-05-11T19:22:13.215Z,19.00
2023-05-11T19:27:17.315Z,18.90
2023-05-11T19:32:21.884Z,18.70
2023-05-11T19:37:27.145Z,18.70
2023-05-11T19:42:39.532Z,18.60
2023-05-11T19:47:43.318Z,18.50
2023-05-11T19:52:48.143Z,18.50
2023-05-11T19:57:51.982Z,18.40
2023-05-11T20:02:57.338Z,18.40
2023-05-11T20:08:03.071Z,18.50
2023-05-11T20:13:08.101Z,18.30
2023-05-11T20:18:11.770Z,18.10
2023-05-11T20:23:16.776Z,17.90
2023-05-11T20:28:21.483Z,17.60
2023-05-11T20:38:33.299Z,17.20
2023-05-11T20:43:36.647Z,17.10
2023-05-11T20:48:41.750Z,17.00
2023-05-11T20:53:47.616Z,16.90
2023-05-11T20:58:51.384Z,16.80
2023-05-11T21:03:54.710Z,16.70
2023-05-11T21:08:59.534Z,16.70
2023-05-11T21:14:03.407Z,16.70
2023-05-11T21:19:07.142Z,16.80
2023-05-11T21:24:14.429Z,16.60
2023-05-11T21:29:18.225Z,16.50
2023-05-11T21:34:22.415Z,16.30
2023-05-11T21:39:27.408Z,16.30
2023-05-11T21:44:30.884Z,16.30
2023-05-11T21:49:36.348Z,16.30
2023-05-11T21:54:41.058Z,16.10
2023-05-11T21:59:44.683Z,16.10
2023-05-11T22:04:48.091Z,16.10
2023-05-11T22:09:52.887Z,16.20
2023-05-11T22:14:56.573Z,16.10
2023-05-11T22:19:59.902Z,16.20
2023-05-11T22:25:05.962Z,16.20
2023-05-11T22:30:10.617Z,16.30
2023-05-11T22:35:14.365Z,16.30
2023-05-11T22:40:19.605Z,16.20
2023-05-11T22:45:23.242Z,16.20
2023-05-11T22:50:26.793Z,16.10
2023-05-11T22:55:31.991Z,16.30
2023-05-11T23:00:35.769Z,16.30
2023-05-11T23:27:26.663Z,16.40
2023-05-11T23:32:31.160Z,16.30
2023-05-11T23:37:35.773Z,16.30
2023-05-11T23:42:40.719Z,16.10
2023-05-11T23:47:44.231Z,15.90
2023-05-11T23:52:47.888Z,15.60
2023-05-11T23:57:52.775Z,15.20
